Kota Cahaya — 9V9692 — position and weather

sailwx.info

Track history (hours):
 
Tides and Currents Weather Stations Pressure Air Temp Water Temp Dewpoint Dewpoint Depression Visibility Wind Speed Wind Dir Waves Ship Positions

Kota Cahaya

Last reported at 2018-Apr-19 04:55 UTC. Time now 2018-Apr-20 01:29 UTC.
Position N 33°31' E 139°39'.

Length 301 m; draft 11.2 m.

Type: Cargo ship. MMSI: 566651000.

Date/timePositionNaut miles runAvg speedWind from/ knotsBaromVisibWave heightAir tempDewpointWater temp
2018-Apr-19 04:55N 33°31' E 139°39'  
2018-Apr-14 07:48N 31°06' E 122°32'412.3
2018-Apr-14 07:28N 31°06' E 122°27'714.1
2018-Apr-14 06:59N 31°06' E 122°19'811.9
2018-Apr-14 06:20N 31°10' E 122°11'310.8
2018-Apr-14 06:01N 31°12' E 122°08'611.6
2018-Apr-14 05:30N 31°14' E 122°02'714.8
2018-Apr-14 05:00N 31°16' E 121°53'611.6
2018-Apr-14 04:30N 31°18' E 121°47'712.1
2018-Apr-14 03:55N 31°21' E 121°39'4 9.4
2018-Apr-14 03:28N 31°23' E 121°35'0 0.1
2018-Apr-14 00:12N 31°23' E 121°35'0 0.0
2018-Apr-13 23:54N 31°23' E 121°35'0 0.0
2018-Apr-13 18:36N 31°23' E 121°35'0 0.0
2018-Apr-13 18:30N 31°23' E 121°35'0 0.0
2018-Apr-13 17:54N 31°23' E 121°35'0 0.0
2018-Apr-13 16:42N 31°23' E 121°35'0 0.0
2018-Apr-13 15:18N 31°23' E 121°35'0 0.0
2018-Apr-13 12:24N 31°23' E 121°35'0 0.0
2018-Apr-13 12:00N 31°23' E 121°35'0 0.0
2018-Apr-13 04:32N 31°23' E 121°35'0 0.2
2018-Apr-13 04:29N 31°23' E 121°35'1 2.5
2018-Apr-13 03:55N 31°24' E 121°33'2 3.4
2018-Apr-13 03:21N 31°23' E 121°36'310.0
2018-Apr-13 03:00N 31°21' E 121°39'5 9.7
2018-Apr-13 02:28N 31°19' E 121°44'613.5
2018-Apr-13 02:00N 31°16' E 121°51'4 8.5
2018-Apr-13 01:29N 31°15' E 121°56'714.8
2018-Apr-13 01:01N 31°14' E 122°04'5 9.4
2018-Apr-13 00:30N 31°12' E 122°09'1120.1
2018-Apr-12 23:58N 31°06' E 122°20'2 3.6
2018-Apr-12 23:30N 31°06' E 122°22'4 7.4
2018-Apr-12 23:00N 31°06' E 122°26'3 5.5
2018-Apr-12 22:27N 31°07' E 122°30'613.8
2018-Apr-12 21:59N 31°07' E 122°37'611.4
2018-Apr-12 21:26N 31°10' E 122°43'4 6.8
2018-Apr-12 20:50N 31°14' E 122°41'0 0.4
2018-Apr-12 19:49N 31°14' E 122°41'0 0.0
2018-Apr-12 16:57N 31°14' E 122°41'0 0.0
2018-Apr-12 16:23N 31°14' E 122°41'0 0.0
2018-Apr-12 09:22N 31°14' E 122°41'0 0.1
2018-Apr-12 08:56N 31°14' E 122°41'0 0.0
2018-Apr-12 03:38N 31°14' E 122°41'0 0.0
2018-Apr-12 03:20N 31°14' E 122°41'0 0.1
2018-Apr-12 02:56N 31°14' E 122°41'0 0.1
2018-Apr-12 02:26N 31°14' E 122°41'0 0.1
2018-Apr-12 01:59N 31°14' E 122°41'0 0.0
2018-Apr-12 01:14N 31°14' E 122°41'0 0.1
2018-Apr-12 00:38N 31°14' E 122°41'0 0.0
2018-Apr-12 00:26N 31°14' E 122°41'0 0.0
2018-Apr-11 21:50N 31°14' E 122°41'0 0.1
2018-Apr-11 21:05N 31°14' E 122°41'0 0.0
2018-Apr-11 20:44N 31°14' E 122°41'0 0.1
2018-Apr-11 18:50N 31°14' E 122°41'0 0.1
2018-Apr-11 18:26N 31°14' E 122°41'0 0.1
2018-Apr-11 17:44N 31°14' E 122°41'0 0.2
2018-Apr-11 17:26N 31°14' E 122°41'0 0.1
2018-Apr-11 13:38N 31°14' E 122°41'0 0.0
2018-Apr-11 10:12N 31°14' E 122°41'0 0.1
2018-Apr-11 08:56N 31°14' E 122°41'1 0.1
2018-Apr-10 18:22N 31°14' E 122°42'510.3
2018-Apr-10 17:55N 31°15' E 122°47'511.4
2018-Apr-10 17:28N 31°18' E 122°52'610.9
2018-Apr-10 16:53N 31°23' E 122°55'3314.8
2018-Apr-10 14:41N 31°56' E 122°54'0 2.0
2018-Apr-10 14:30N 31°56' E 122°54'23212.8
2018-Apr-09 20:20N 35°30' E 121°06'617.0
2018-Apr-09 19:59N 35°35' E 121°01'3415.8
2018-Apr-09 17:49N 35°59' E 120°31'617.8
2018-Apr-09 17:28N 36°00' E 120°24'612.3
2018-Apr-09 17:00N 36°02' E 120°16'3 6.5
2018-Apr-09 16:28N 36°01' E 120°12'0 0.0
2018-Apr-09 13:41N 36°01' E 120°12'0 0.0
2018-Apr-09 13:26N 36°01' E 120°12'0 0.0
2018-Apr-09 12:56N 36°01' E 120°12'0 0.0
2018-Apr-09 12:25N 36°01' E 120°12'0 0.0
2018-Apr-09 11:55N 36°01' E 120°12'0 0.0
2018-Apr-09 11:24N 36°01' E 120°12'0 0.0
2018-Apr-09 10:54N 36°01' E 120°12'0 0.0
2018-Apr-09 10:24N 36°01' E 120°12'0 0.0
2018-Apr-09 09:54N 36°01' E 120°12'0 0.0
2018-Apr-09 09:30N 36°01' E 120°12'0 0.0
2018-Apr-09 08:57N 36°01' E 120°12'0 0.0
2018-Apr-09 08:23N 36°01' E 120°12'0 0.0
2018-Apr-09 07:53N 36°01' E 120°12'0 0.0
2018-Apr-09 07:22N 36°01' E 120°12'0 0.0
2018-Apr-09 06:59N 36°01' E 120°12'0 0.0
2018-Apr-09 06:30N 36°01' E 120°12'0 0.0
2018-Apr-09 05:55N 36°01' E 120°12'0 0.0
2018-Apr-09 05:21N 36°01' E 120°12'  
Track history (hours):
 
Tides and Currents Weather Stations Pressure Air Temp Water Temp Dewpoint Dewpoint Depression Visibility Wind Speed Wind Dir Waves Ship Positions

Kota Cahaya

Last reported at 2018-Apr-19 04:55 UTC. Time now 2018-Apr-20 01:29 UTC.
Position N 33°31' E 139°39'.

Length 301 m; draft 11.2 m.

Type: Cargo ship. MMSI: 566651000.

Date/timePositionNaut miles runAvg speedWind from/ knotsBaromVisibWave heightAir tempDewpointWater temp
2018-Apr-19 04:55N 33°31' E 139°39'  
2018-Apr-14 07:48N 31°06' E 122°32'412.3
2018-Apr-14 07:28N 31°06' E 122°27'714.1
2018-Apr-14 06:59N 31°06' E 122°19'811.9
2018-Apr-14 06:20N 31°10' E 122°11'310.8
2018-Apr-14 06:01N 31°12' E 122°08'611.6
2018-Apr-14 05:30N 31°14' E 122°02'714.8
2018-Apr-14 05:00N 31°16' E 121°53'611.6
2018-Apr-14 04:30N 31°18' E 121°47'712.1
2018-Apr-14 03:55N 31°21' E 121°39'4 9.4
2018-Apr-14 03:28N 31°23' E 121°35'0 0.1
2018-Apr-14 00:12N 31°23' E 121°35'0 0.0
2018-Apr-13 23:54N 31°23' E 121°35'0 0.0
2018-Apr-13 18:36N 31°23' E 121°35'0 0.0
2018-Apr-13 18:30N 31°23' E 121°35'0 0.0
2018-Apr-13 17:54N 31°23' E 121°35'0 0.0
2018-Apr-13 16:42N 31°23' E 121°35'0 0.0
2018-Apr-13 15:18N 31°23' E 121°35'0 0.0
2018-Apr-13 12:24N 31°23' E 121°35'0 0.0
2018-Apr-13 12:00N 31°23' E 121°35'0 0.0
2018-Apr-13 04:32N 31°23' E 121°35'0 0.2
2018-Apr-13 04:29N 31°23' E 121°35'1 2.5
2018-Apr-13 03:55N 31°24' E 121°33'2 3.4
2018-Apr-13 03:21N 31°23' E 121°36'310.0
2018-Apr-13 03:00N 31°21' E 121°39'5 9.7
2018-Apr-13 02:28N 31°19' E 121°44'613.5
2018-Apr-13 02:00N 31°16' E 121°51'4 8.5
2018-Apr-13 01:29N 31°15' E 121°56'714.8
2018-Apr-13 01:01N 31°14' E 122°04'5 9.4
2018-Apr-13 00:30N 31°12' E 122°09'1120.1
2018-Apr-12 23:58N 31°06' E 122°20'2 3.6
2018-Apr-12 23:30N 31°06' E 122°22'4 7.4
2018-Apr-12 23:00N 31°06' E 122°26'3 5.5
2018-Apr-12 22:27N 31°07' E 122°30'613.8
2018-Apr-12 21:59N 31°07' E 122°37'611.4
2018-Apr-12 21:26N 31°10' E 122°43'4 6.8
2018-Apr-12 20:50N 31°14' E 122°41'0 0.4
2018-Apr-12 19:49N 31°14' E 122°41'0 0.0
2018-Apr-12 16:57N 31°14' E 122°41'0 0.0
2018-Apr-12 16:23N 31°14' E 122°41'0 0.0
2018-Apr-12 09:22N 31°14' E 122°41'0 0.1
2018-Apr-12 08:56N 31°14' E 122°41'0 0.0
2018-Apr-12 03:38N 31°14' E 122°41'0 0.0
2018-Apr-12 03:20N 31°14' E 122°41'0 0.1
2018-Apr-12 02:56N 31°14' E 122°41'0 0.1
2018-Apr-12 02:26N 31°14' E 122°41'0 0.1
2018-Apr-12 01:59N 31°14' E 122°41'0 0.0
2018-Apr-12 01:14N 31°14' E 122°41'0 0.1
2018-Apr-12 00:38N 31°14' E 122°41'0 0.0
2018-Apr-12 00:26N 31°14' E 122°41'0 0.0
2018-Apr-11 21:50N 31°14' E 122°41'0 0.1
2018-Apr-11 21:05N 31°14' E 122°41'0 0.0
2018-Apr-11 20:44N 31°14' E 122°41'0 0.1
2018-Apr-11 18:50N 31°14' E 122°41'0 0.1
2018-Apr-11 18:26N 31°14' E 122°41'0 0.1
2018-Apr-11 17:44N 31°14' E 122°41'0 0.2
2018-Apr-11 17:26N 31°14' E 122°41'0 0.1
2018-Apr-11 13:38N 31°14' E 122°41'0 0.0
2018-Apr-11 10:12N 31°14' E 122°41'0 0.1
2018-Apr-11 08:56N 31°14' E 122°41'1 0.1
2018-Apr-10 18:22N 31°14' E 122°42'510.3
2018-Apr-10 17:55N 31°15' E 122°47'511.4
2018-Apr-10 17:28N 31°18' E 122°52'610.9
2018-Apr-10 16:53N 31°23' E 122°55'3314.8
2018-Apr-10 14:41N 31°56' E 122°54'0 2.0
2018-Apr-10 14:30N 31°56' E 122°54'23212.8
2018-Apr-09 20:20N 35°30' E 121°06'617.0
2018-Apr-09 19:59N 35°35' E 121°01'3415.8
2018-Apr-09 17:49N 35°59' E 120°31'617.8
2018-Apr-09 17:28N 36°00' E 120°24'612.3
2018-Apr-09 17:00N 36°02' E 120°16'3 6.5
2018-Apr-09 16:28N 36°01' E 120°12'0 0.0
2018-Apr-09 13:41N 36°01' E 120°12'0 0.0
2018-Apr-09 13:26N 36°01' E 120°12'0 0.0
2018-Apr-09 12:56N 36°01' E 120°12'0 0.0
2018-Apr-09 12:25N 36°01' E 120°12'0 0.0
2018-Apr-09 11:55N 36°01' E 120°12'0 0.0
2018-Apr-09 11:24N 36°01' E 120°12'0 0.0
2018-Apr-09 10:54N 36°01' E 120°12'0 0.0
2018-Apr-09 10:24N 36°01' E 120°12'0 0.0
2018-Apr-09 09:54N 36°01' E 120°12'0 0.0
2018-Apr-09 09:30N 36°01' E 120°12'0 0.0
2018-Apr-09 08:57N 36°01' E 120°12'0 0.0
2018-Apr-09 08:23N 36°01' E 120°12'0 0.0
2018-Apr-09 07:53N 36°01' E 120°12'0 0.0
2018-Apr-09 07:22N 36°01' E 120°12'0 0.0
2018-Apr-09 06:59N 36°01' E 120°12'0 0.0
2018-Apr-09 06:30N 36°01' E 120°12'0 0.0
2018-Apr-09 05:55N 36°01' E 120°12'0 0.0
2018-Apr-09 05:21N 36°01' E 120°12'  

Dump ship's entire track history